Murdock, Nebraska
Current Conditions -  °F | °C
As of 1:35 AM on Saturday 25 Oct 2014 (Local Time) from KPMV Reporting Station
Clear Clear  
Wind Chill: 56°   Ceiling: Unl
Heat Index: 56°   Visibility: 10mi
Dew Point: 50°   Wind: 3mph
Humidity: 81%   Direction: 310°NW
Pressure: 30.01"   Gusts: NA
Location:  40.93°N, 96.28°W
Report Text: KPMV 250635Z AUTO 31003KT 10SM CLR 13/10 A3001 RMK AO2 T01310099
Loading
Personal Weather Stations






























Interactive Weather Map
Tropical Storm Tracking
New forecast layout! Learn more

10-Day Weather Forecast

Advertisements
Track Severe Weather on mobile